createdAt,value
2022-11-18T00:01:21.517Z,8.30
2022-11-18T00:03:50.142Z,8.30
2022-11-18T00:06:21.302Z,8.30
2022-11-18T00:08:49.297Z,8.30
2022-11-18T00:11:34.121Z,8.30
2022-11-18T00:14:20.241Z,8.30
2022-11-18T00:16:50.214Z,8.30
2022-11-18T00:19:19.198Z,8.30
2022-11-18T00:21:49.143Z,8.20
2022-11-18T00:24:17.033Z,8.20
2022-11-18T00:26:44.887Z,8.20
2022-11-18T00:29:13.287Z,8.20
2022-11-18T00:31:41.132Z,8.10
2022-11-18T00:34:10.833Z,8.10
2022-11-18T00:36:38.696Z,8.10
2022-11-18T00:39:07.844Z,8.00
2022-11-18T00:41:53.049Z,8.10
2022-11-18T00:44:20.878Z,8.00
2022-11-18T00:46:48.648Z,8.00
2022-11-18T00:49:16.624Z,8.00
2022-11-18T00:51:44.657Z,8.00
2022-11-18T00:54:13.771Z,8.00
2022-11-18T00:56:41.578Z,8.10
2022-11-18T00:59:09.852Z,8.10
2022-11-18T01:01:37.864Z,8.10
2022-11-18T01:04:05.934Z,8.00
2022-11-18T01:06:33.792Z,8.00
2022-11-18T01:09:01.635Z,8.00
2022-11-18T01:11:48.258Z,8.00
2022-11-18T01:14:16.118Z,8.00
2022-11-18T01:16:44.011Z,8.00
2022-11-18T01:19:11.882Z,8.00
2022-11-18T01:21:39.738Z,8.00
2022-11-18T01:24:07.888Z,7.90
2022-11-18T01:26:37.093Z,7.90
2022-11-18T01:29:04.907Z,7.90
2022-11-18T01:31:32.779Z,7.90
2022-11-18T01:34:00.619Z,7.90
2022-11-18T01:36:29.236Z,7.90
2022-11-18T01:38:57.344Z,7.90
2022-11-18T01:41:27.712Z,7.90
2022-11-18T01:43:59.349Z,7.90
2022-11-18T01:46:29.322Z,7.90
2022-11-18T01:49:01.576Z,7.80
2022-11-18T01:51:32.292Z,7.80
2022-11-18T01:54:06.121Z,7.90
2022-11-18T01:56:38.365Z,7.90
2022-11-18T01:59:11.411Z,7.80
2022-11-18T02:01:40.012Z,7.80
2022-11-18T02:04:09.935Z,7.70
2022-11-18T02:06:38.483Z,7.70
2022-11-18T02:09:06.791Z,7.70
2022-11-18T02:11:54.341Z,7.70
2022-11-18T02:14:25.995Z,7.70
2022-11-18T02:17:05.269Z,7.70
2022-11-18T02:20:08.759Z,7.70
2022-11-18T02:22:49.020Z,7.80
2022-11-18T02:25:22.783Z,7.80
2022-11-18T02:28:28.907Z,7.80
2022-11-18T02:31:01.652Z,7.80
2022-11-18T02:33:37.527Z,7.80
2022-11-18T02:36:11.225Z,7.80
2022-11-18T02:38:44.270Z,7.80
2022-11-18T02:41:17.227Z,7.90
2022-11-18T02:43:48.642Z,7.90
2022-11-18T02:46:21.685Z,7.90
2022-11-18T02:48:52.023Z,7.90
2022-11-18T02:51:24.423Z,7.80
2022-11-18T02:53:54.308Z,7.90
2022-11-18T02:56:23.039Z,7.90
2022-11-18T02:58:51.043Z,7.90
2022-11-18T03:01:25.006Z,7.90
2022-11-18T03:03:52.975Z,7.90
2022-11-18T03:06:28.470Z,7.90
2022-11-18T03:09:02.255Z,7.90
2022-11-18T03:11:32.439Z,7.90
2022-11-18T03:14:09.695Z,7.90
2022-11-18T03:16:43.194Z,7.90
2022-11-18T03:19:19.186Z,7.80
2022-11-18T03:21:57.119Z,7.80
2022-11-18T03:24:30.453Z,7.90
2022-11-18T03:27:07.340Z,7.90
2022-11-18T03:29:39.966Z,7.80
2022-11-18T03:32:13.987Z,7.70
2022-11-18T03:34:45.365Z,7.70
2022-11-18T03:37:16.943Z,7.70
2022-11-18T03:39:49.381Z,7.70
2022-11-18T03:42:22.712Z,7.70
2022-11-18T03:44:54.791Z,7.70
2022-11-18T03:47:30.077Z,7.70
2022-11-18T03:50:06.926Z,7.70
2022-11-18T03:52:38.756Z,7.70
2022-11-18T03:55:10.844Z,7.80
2022-11-18T03:57:47.104Z,7.80
2022-11-18T04:00:17.353Z,7.80
2022-11-18T04:02:48.566Z,7.80
2022-11-18T04:05:18.767Z,7.80
2022-11-18T04:07:56.266Z,7.70
2022-11-18T04:10:28.402Z,7.70
2022-11-18T04:13:06.376Z,7.60
2022-11-18T04:15:37.687Z,7.70
2022-11-18T04:18:06.901Z,7.60
2022-11-18T04:20:34.818Z,7.60
2022-11-18T04:23:02.718Z,7.60
2022-11-18T04:25:30.534Z,7.70
2022-11-18T04:27:58.311Z,7.60
2022-11-18T04:30:26.226Z,7.60
2022-11-18T04:32:54.039Z,7.60
2022-11-18T04:35:23.278Z,7.70
2022-11-18T04:37:51.211Z,7.70
2022-11-18T04:40:19.082Z,7.70
2022-11-18T04:42:46.972Z,7.70
2022-11-18T04:45:14.790Z,7.70
2022-11-18T04:47:42.589Z,7.80
2022-11-18T04:50:10.950Z,7.80
2022-11-18T04:52:40.135Z,7.80
2022-11-18T04:55:08.875Z,7.80
2022-11-18T04:57:36.647Z,7.80
2022-11-18T05:00:06.061Z,7.80
2022-11-18T05:02:33.881Z,7.80
2022-11-18T05:05:01.664Z,7.80
2022-11-18T05:07:29.577Z,7.80
2022-11-18T05:09:58.795Z,7.80
2022-11-18T05:12:44.140Z,7.80
2022-11-18T05:15:12.106Z,7.70
2022-11-18T05:17:39.883Z,7.80
2022-11-18T05:20:08.742Z,7.80
2022-11-18T05:22:36.581Z,7.70
2022-11-18T05:25:06.708Z,7.70
2022-11-18T05:27:34.619Z,7.70
2022-11-18T05:30:02.437Z,7.80
2022-11-18T05:32:30.247Z,7.80
2022-11-18T05:34:58.343Z,7.70
2022-11-18T05:37:26.189Z,7.70
2022-11-18T05:39:54.030Z,7.70
2022-11-18T05:42:40.618Z,7.60
2022-11-18T05:45:08.875Z,7.60
2022-11-18T05:47:56.662Z,7.60
2022-11-18T05:50:24.511Z,7.70
2022-11-18T05:52:52.378Z,7.60
2022-11-18T05:55:21.751Z,7.60
2022-11-18T05:57:50.881Z,7.60
2022-11-18T06:00:19.498Z,7.50
2022-11-18T06:02:48.812Z,7.50
2022-11-18T06:05:18.618Z,7.50
2022-11-18T06:07:47.039Z,7.50
2022-11-18T06:10:19.843Z,7.50
2022-11-18T06:12:52.477Z,7.40
2022-11-18T06:15:22.270Z,7.50
2022-11-18T06:17:54.497Z,7.50
2022-11-18T06:20:22.977Z,7.60
2022-11-18T06:22:54.564Z,7.50
2022-11-18T06:25:22.550Z,7.60
2022-11-18T06:27:55.025Z,7.60
2022-11-18T06:30:22.810Z,7.50
2022-11-18T06:32:50.648Z,7.50
2022-11-18T06:35:18.503Z,7.60
2022-11-18T06:37:47.322Z,7.60
2022-11-18T06:40:15.318Z,7.60
2022-11-18T06:43:00.940Z,7.60
2022-11-18T06:45:30.662Z,7.70
2022-11-18T06:47:57.846Z,7.70
2022-11-18T06:50:25.891Z,7.70
2022-11-18T06:52:54.094Z,7.60
2022-11-18T06:55:21.919Z,7.60
2022-11-18T06:57:49.766Z,7.70
2022-11-18T07:00:18.639Z,7.70
2022-11-18T07:02:47.754Z,7.70
2022-11-18T07:05:15.837Z,7.70
2022-11-18T07:07:43.650Z,7.70
2022-11-18T07:10:11.582Z,7.70
2022-11-18T07:12:39.418Z,7.80
2022-11-18T07:15:08.300Z,7.70
2022-11-18T07:17:36.118Z,7.70
2022-11-18T07:20:05.876Z,7.70
2022-11-18T07:22:33.696Z,7.70
2022-11-18T07:25:01.575Z,7.70
2022-11-18T07:27:29.831Z,7.70
2022-11-18T07:29:57.705Z,7.70
2022-11-18T07:32:25.543Z,7.70
2022-11-18T07:34:53.415Z,7.80
2022-11-18T07:37:22.579Z,7.80
2022-11-18T07:39:50.340Z,7.80
2022-11-18T07:42:18.388Z,7.80
2022-11-18T07:44:46.228Z,7.90
2022-11-18T07:47:14.046Z,7.90
2022-11-18T07:49:41.899Z,7.90
2022-11-18T07:52:09.809Z,7.90
2022-11-18T07:54:39.030Z,8.00
2022-11-18T07:57:07.019Z,8.00
2022-11-18T07:59:34.875Z,8.10
2022-11-18T08:02:02.730Z,8.10
2022-11-18T08:04:30.786Z,8.10
2022-11-18T08:06:58.637Z,8.20
2022-11-18T08:09:26.486Z,8.20
2022-11-18T08:11:55.698Z,8.20
2022-11-18T08:14:24.192Z,8.10
2022-11-18T08:16:52.016Z,8.10
2022-11-18T08:19:20.374Z,8.10
2022-11-18T08:21:48.572Z,8.10
2022-11-18T08:24:16.370Z,8.20
2022-11-18T08:26:44.246Z,8.10
2022-11-18T08:29:13.874Z,8.20
2022-11-18T08:31:41.683Z,8.10
2022-11-18T08:34:09.533Z,8.10
2022-11-18T08:36:38.805Z,8.20
2022-11-18T08:39:08.891Z,8.20
2022-11-18T08:41:38.771Z,8.20
2022-11-18T08:44:07.875Z,8.30
2022-11-18T08:46:37.075Z,8.30
2022-11-18T08:49:04.904Z,8.20
2022-11-18T08:51:32.733Z,8.20
2022-11-18T08:54:00.942Z,8.20
2022-11-18T08:56:28.823Z,8.20
2022-11-18T08:58:57.620Z,8.20
2022-11-18T09:01:25.911Z,8.20
2022-11-18T09:03:55.776Z,8.30
2022-11-18T09:06:24.908Z,8.20
2022-11-18T09:08:53.385Z,8.20
2022-11-18T09:11:22.627Z,8.20
2022-11-18T09:16:41.339Z,8.10
2022-11-18T09:19:40.106Z,8.20
2022-11-18T09:21:58.289Z,8.20
2022-11-18T09:24:26.409Z,8.10
2022-11-18T09:26:54.259Z,8.10
2022-11-18T09:29:25.348Z,7.90
2022-11-18T09:31:53.742Z,8.00
2022-11-18T09:34:23.620Z,8.00
2022-11-18T09:36:55.732Z,8.00
2022-11-18T09:39:23.926Z,7.90
2022-11-18T09:42:00.288Z,7.80
2022-11-18T09:44:51.097Z,7.60
2022-11-18T09:47:28.167Z,7.50
2022-11-18T09:49:59.471Z,7.40
2022-11-18T09:52:35.767Z,7.40
2022-11-18T09:55:12.344Z,7.50
2022-11-18T09:57:42.057Z,7.50
2022-11-18T10:00:15.897Z,7.60
2022-11-18T10:02:52.171Z,7.60
2022-11-18T10:05:24.067Z,7.60
2022-11-18T10:08:04.127Z,7.60
2022-11-18T10:10:47.111Z,7.60
2022-11-18T10:13:25.623Z,7.70
2022-11-18T10:16:01.410Z,7.70
2022-11-18T10:21:39.271Z,7.60
2022-11-18T10:24:13.553Z,7.70
2022-11-18T10:26:42.877Z,7.50
2022-11-18T10:29:11.051Z,7.50
2022-11-18T10:31:39.994Z,7.70
2022-11-18T10:34:11.748Z,7.60
2022-11-18T10:36:41.967Z,7.60
2022-11-18T10:39:12.968Z,7.60
2022-11-18T10:41:47.699Z,7.70
2022-11-18T10:44:35.039Z,7.60
2022-11-18T10:47:22.460Z,7.60
2022-11-18T10:49:50.699Z,7.30
2022-11-18T10:52:20.166Z,7.30
2022-11-18T10:55:08.082Z,7.10
2022-11-18T10:57:39.068Z,7.10
2022-11-18T11:00:09.189Z,7.10
2022-11-18T11:02:41.761Z,7.10
2022-11-18T11:05:20.144Z,7.20
2022-11-18T11:08:28.887Z,7.30
2022-11-18T11:10:56.731Z,7.50
2022-11-18T11:13:27.140Z,7.70
2022-11-18T11:16:00.278Z,7.80
2022-11-18T11:18:43.022Z,7.90
2022-11-18T11:21:13.010Z,7.90
2022-11-18T11:23:42.334Z,8.00
2022-11-18T11:29:13.999Z,8.00
2022-11-18T11:31:50.513Z,8.00
2022-11-18T11:34:26.954Z,7.90
2022-11-18T11:37:03.032Z,7.90
2022-11-18T11:39:47.212Z,7.90
2022-11-18T11:42:25.905Z,7.80
2022-11-18T11:45:06.032Z,7.80
2022-11-18T11:47:50.046Z,7.80
2022-11-18T11:50:24.310Z,7.70
2022-11-18T11:53:10.124Z,7.70
2022-11-18T11:55:53.053Z,7.60
2022-11-18T11:58:38.965Z,7.70
2022-11-18T12:01:15.489Z,7.70
2022-11-18T12:03:51.726Z,7.60
2022-11-18T12:06:20.084Z,7.60
2022-11-18T12:09:03.663Z,7.60
2022-11-18T12:11:38.425Z,7.70
2022-11-18T12:14:12.951Z,7.70
2022-11-18T12:16:49.944Z,7.80
2022-11-18T12:19:20.736Z,7.70
2022-11-18T12:22:03.808Z,7.70
2022-11-18T12:24:37.564Z,7.70
2022-11-18T12:27:13.745Z,7.70
2022-11-18T12:29:54.173Z,7.70
2022-11-18T12:32:36.102Z,7.50
2022-11-18T12:35:07.170Z,7.60
2022-11-18T12:37:46.835Z,7.50
2022-11-18T12:40:36.603Z,7.50
2022-11-18T12:43:24.888Z,7.40
2022-11-18T12:45:58.457Z,7.50
2022-11-18T12:48:31.532Z,7.40
2022-11-18T12:51:00.691Z,7.40
2022-11-18T12:53:36.909Z,7.30
2022-11-18T12:56:23.968Z,7.30
2022-11-18T12:58:55.162Z,7.30
2022-11-18T13:01:24.921Z,7.30
2022-11-18T13:03:53.197Z,7.10
2022-11-18T13:06:27.573Z,7.00
2022-11-18T13:08:57.553Z,7.00
2022-11-18T13:11:44.467Z,6.90
2022-11-18T13:14:36.037Z,6.80
2022-11-18T13:17:21.938Z,6.80
2022-11-18T13:19:57.639Z,6.80
2022-11-18T13:22:43.431Z,6.70
2022-11-18T13:25:25.542Z,6.80
2022-11-18T13:28:02.682Z,6.80
2022-11-18T13:30:34.601Z,6.80
2022-11-18T13:33:02.607Z,6.90
2022-11-18T13:35:30.580Z,6.90
2022-11-18T13:37:59.966Z,6.80
2022-11-18T13:40:30.442Z,6.90
2022-11-18T13:42:58.393Z,6.90
2022-11-18T13:45:28.750Z,6.90
2022-11-18T13:48:01.837Z,7.00
2022-11-18T13:50:35.887Z,7.00
2022-11-18T13:53:12.702Z,7.00
2022-11-18T13:55:45.205Z,7.10
2022-11-18T13:58:55.646Z,7.10
2022-11-18T14:01:24.214Z,7.10
2022-11-18T14:03:56.650Z,7.10
2022-11-18T14:06:29.373Z,7.10
2022-11-18T14:09:16.328Z,7.20
2022-11-18T14:11:45.925Z,7.20
2022-11-18T14:14:28.902Z,7.20
2022-11-18T14:17:06.043Z,7.20
2022-11-18T14:19:42.309Z,7.10
2022-11-18T14:22:15.623Z,7.20
2022-11-18T14:24:43.929Z,7.30
2022-11-18T14:27:37.133Z,7.20
2022-11-18T14:30:36.167Z,7.20
2022-11-18T14:33:20.486Z,7.30
2022-11-18T14:35:55.797Z,7.30
2022-11-18T14:41:16.646Z,7.30
2022-11-18T14:43:45.861Z,7.30
2022-11-18T14:46:16.922Z,7.30
2022-11-18T14:48:44.987Z,7.30
2022-11-18T14:51:15.689Z,7.30
2022-11-18T14:53:44.164Z,7.30
2022-11-18T14:56:16.917Z,7.30
2022-11-18T14:58:44.713Z,7.10
2022-11-18T15:01:13.805Z,7.10
2022-11-18T15:03:41.879Z,7.10
2022-11-18T15:06:16.004Z,7.10
2022-11-18T15:08:45.310Z,7.10
2022-11-18T15:11:13.701Z,7.10
2022-11-18T15:13:42.036Z,7.00
2022-11-18T15:16:15.763Z,7.00
2022-11-18T15:18:44.610Z,7.00
2022-11-18T15:21:12.585Z,7.00
2022-11-18T15:23:41.791Z,7.00
2022-11-18T15:26:19.057Z,7.00
2022-11-18T15:28:47.426Z,7.00
2022-11-18T15:31:15.216Z,6.90
2022-11-18T15:33:43.258Z,6.90
2022-11-18T15:36:14.024Z,6.90
2022-11-18T15:38:43.279Z,6.90
2022-11-18T15:41:16.982Z,6.80
2022-11-18T15:43:44.953Z,6.80
2022-11-18T15:46:12.872Z,6.80
2022-11-18T15:48:40.785Z,6.80
2022-11-18T15:51:11.928Z,6.80
2022-11-18T15:53:40.521Z,6.80
2022-11-18T15:56:28.009Z,6.90
2022-11-18T15:58:57.274Z,6.80
2022-11-18T16:01:26.268Z,6.80
2022-11-18T16:03:54.362Z,6.80
2022-11-18T16:06:22.798Z,6.90
2022-11-18T16:08:55.858Z,6.80
2022-11-18T16:11:46.530Z,6.80
2022-11-18T16:14:17.059Z,6.80
2022-11-18T16:16:46.795Z,6.90
2022-11-18T16:19:17.019Z,6.90
2022-11-18T16:21:47.367Z,6.90
2022-11-18T16:24:17.539Z,6.80
2022-11-18T16:26:47.173Z,6.90
2022-11-18T16:29:16.645Z,6.90
2022-11-18T16:31:44.762Z,6.90
2022-11-18T16:34:14.756Z,6.90
2022-11-18T16:36:44.232Z,6.90
2022-11-18T16:39:14.134Z,6.90
2022-11-18T16:41:43.067Z,7.00
2022-11-18T16:44:15.023Z,7.00
2022-11-18T16:46:46.312Z,7.00
2022-11-18T16:49:16.280Z,7.00
2022-11-18T16:51:45.873Z,7.00
2022-11-18T16:54:18.209Z,7.00
2022-11-18T16:56:47.217Z,7.00
2022-11-18T16:59:18.452Z,6.90
2022-11-18T17:01:46.942Z,6.90
2022-11-18T17:04:14.999Z,6.90
2022-11-18T17:06:43.125Z,6.90
2022-11-18T17:09:15.277Z,6.90
2022-11-18T17:11:43.643Z,6.90
2022-11-18T17:14:13.465Z,6.90
2022-11-18T17:16:44.158Z,6.90
2022-11-18T17:19:14.926Z,6.90
2022-11-18T17:21:43.647Z,6.90
2022-11-18T17:24:13.864Z,6.90
2022-11-18T17:26:42.431Z,7.00
2022-11-18T17:29:11.543Z,7.00
2022-11-18T17:31:40.401Z,7.00
2022-11-18T17:34:11.680Z,7.00
2022-11-18T17:36:39.604Z,7.00
2022-11-18T17:39:07.740Z,7.00
2022-11-18T17:41:53.051Z,6.90
2022-11-18T17:44:21.260Z,6.90
2022-11-18T17:46:49.321Z,6.90
2022-11-18T17:49:21.072Z,7.00
2022-11-18T17:51:51.139Z,7.00
2022-11-18T17:54:19.720Z,6.90
2022-11-18T17:56:48.429Z,6.90
2022-11-18T17:59:17.377Z,7.00
2022-11-18T18:01:46.082Z,7.00
2022-11-18T18:04:20.029Z,7.00
2022-11-18T18:06:51.473Z,7.00
2022-11-18T18:09:21.678Z,7.00
2022-11-18T18:11:51.751Z,7.00
2022-11-18T18:14:19.248Z,6.90
2022-11-18T18:16:48.954Z,6.80
2022-11-18T18:19:18.599Z,6.80
2022-11-18T18:21:46.756Z,6.80
2022-11-18T18:24:18.132Z,6.80
2022-11-18T18:26:46.496Z,6.80
2022-11-18T18:29:14.563Z,6.70
2022-11-18T18:31:42.350Z,6.70
2022-11-18T18:34:10.250Z,6.60
2022-11-18T18:36:38.146Z,6.50
2022-11-18T18:39:06.238Z,6.50
2022-11-18T18:41:35.430Z,6.50
2022-11-18T18:44:03.612Z,6.40
2022-11-18T18:46:33.262Z,6.30
2022-11-18T18:49:04.556Z,6.20
2022-11-18T18:51:36.371Z,6.20
2022-11-18T18:54:06.373Z,6.20
2022-11-18T18:56:35.945Z,6.20
2022-11-18T18:59:03.840Z,6.20
2022-11-18T19:01:33.394Z,6.30
2022-11-18T19:04:04.051Z,6.20
2022-11-18T19:06:53.227Z,6.30
2022-11-18T19:09:23.144Z,6.20
2022-11-18T19:12:10.683Z,6.20
2022-11-18T19:14:38.757Z,6.20
2022-11-18T19:17:11.371Z,6.20
2022-11-18T19:19:59.184Z,6.20
2022-11-18T19:22:29.910Z,6.20
2022-11-18T19:24:58.818Z,6.30
2022-11-18T19:27:28.904Z,6.20
2022-11-18T19:29:57.115Z,6.20
2022-11-18T19:32:25.326Z,6.20
2022-11-18T19:34:53.419Z,6.20
2022-11-18T19:37:21.262Z,6.30
2022-11-18T19:39:49.848Z,6.30
2022-11-18T19:42:18.076Z,6.30
2022-11-18T19:44:47.728Z,6.30
2022-11-18T19:47:15.906Z,6.30
2022-11-18T19:49:44.317Z,6.30
2022-11-18T19:52:12.875Z,6.30
2022-11-18T19:54:41.409Z,6.20
2022-11-18T19:57:09.352Z,6.20
2022-11-18T19:59:37.245Z,6.20
2022-11-18T20:02:07.318Z,6.30
2022-11-18T20:04:35.714Z,6.20
2022-11-18T20:07:03.816Z,6.10
2022-11-18T20:09:31.861Z,6.00
2022-11-18T20:12:00.196Z,6.00
2022-11-18T20:14:28.102Z,5.90
2022-11-18T20:16:58.462Z,5.90
2022-11-18T20:19:27.629Z,5.90
2022-11-18T20:21:55.415Z,5.80
2022-11-18T20:24:23.202Z,5.80
2022-11-18T20:26:50.992Z,5.70
2022-11-18T20:29:19.129Z,5.60
2022-11-18T20:31:47.133Z,5.60
2022-11-18T20:34:15.532Z,5.60
2022-11-18T20:36:46.337Z,5.70
2022-11-18T20:39:15.693Z,5.60
2022-11-18T20:42:03.744Z,5.60
2022-11-18T20:44:31.618Z,5.50
2022-11-18T20:46:59.406Z,5.60
2022-11-18T20:49:27.193Z,5.50
2022-11-18T20:51:56.437Z,5.50
2022-11-18T20:54:24.257Z,5.50
2022-11-18T20:56:52.125Z,5.50
2022-11-18T20:59:20.287Z,5.60
2022-11-18T21:01:48.837Z,5.60
2022-11-18T21:04:16.715Z,5.60
2022-11-18T21:06:45.292Z,5.60
2022-11-18T21:09:14.467Z,5.60
2022-11-18T21:11:42.297Z,5.50
2022-11-18T21:14:25.279Z,5.50
2022-11-18T21:16:55.103Z,5.40
2022-11-18T21:19:22.982Z,5.40
2022-11-18T21:21:52.281Z,5.40
2022-11-18T21:24:23.121Z,5.40
2022-11-18T21:26:52.398Z,5.30
2022-11-18T21:29:20.343Z,5.30
2022-11-18T21:31:48.578Z,5.30
2022-11-18T21:34:17.448Z,5.30
2022-11-18T21:36:50.217Z,5.30
2022-11-18T21:39:22.636Z,5.40
2022-11-18T21:41:55.163Z,5.40
2022-11-18T21:44:24.506Z,5.50
2022-11-18T21:46:52.257Z,5.50
2022-11-18T21:49:20.200Z,5.60
2022-11-18T21:51:48.303Z,5.60
2022-11-18T21:54:18.056Z,5.60
2022-11-18T21:56:47.213Z,5.60
2022-11-18T21:59:14.977Z,5.70
2022-11-18T22:01:42.927Z,5.70
2022-11-18T22:04:30.738Z,5.80
2022-11-18T22:06:58.568Z,5.80
2022-11-18T22:09:30.184Z,5.80
2022-11-18T22:12:02.288Z,5.80
2022-11-18T22:14:30.078Z,5.80
2022-11-18T22:16:57.882Z,5.80
2022-11-18T22:19:25.690Z,5.70
2022-11-18T22:21:53.454Z,5.70
2022-11-18T22:24:21.405Z,5.80
2022-11-18T22:26:49.310Z,5.70
2022-11-18T22:29:18.838Z,5.70
2022-11-18T22:31:46.973Z,5.70
2022-11-18T22:34:15.080Z,5.70
2022-11-18T22:36:42.966Z,5.70
2022-11-18T22:39:10.725Z,5.60
2022-11-18T22:41:55.873Z,5.60
2022-11-18T22:44:25.009Z,5.50
2022-11-18T22:46:53.852Z,5.50
2022-11-18T22:49:21.965Z,5.50
2022-11-18T22:51:49.931Z,5.50
2022-11-18T22:57:05.641Z,5.70
2022-11-18T22:59:34.821Z,5.70
2022-11-18T23:02:02.637Z,5.80
2022-11-18T23:04:30.445Z,5.80
2022-11-18T23:06:58.241Z,5.90
2022-11-18T23:09:26.089Z,5.80
2022-11-18T23:12:26.014Z,5.90
2022-11-18T23:14:55.169Z,5.80
2022-11-18T23:17:22.956Z,5.90
2022-11-18T23:19:50.778Z,5.80
2022-11-18T23:22:18.546Z,5.90
2022-11-18T23:24:46.325Z,5.90
2022-11-18T23:27:14.135Z,5.90
2022-11-18T23:29:41.895Z,5.80
2022-11-18T23:32:10.981Z,5.90
2022-11-18T23:34:38.833Z,5.90
2022-11-18T23:37:06.594Z,5.90
2022-11-18T23:39:34.611Z,6.00
2022-11-18T23:42:02.406Z,6.00
2022-11-18T23:44:52.501Z,6.00
2022-11-18T23:47:21.648Z,6.10
2022-11-18T23:49:49.456Z,6.00
2022-11-18T23:52:17.397Z,6.00
2022-11-18T23:54:45.145Z,6.10
2022-11-18T23:57:12.934Z,6.10
2022-11-18T23:59:40.709Z,6.10
